createdAt,value
2022-08-11T00:00:07.177Z,58.50
2022-08-11T00:01:16.427Z,58.70
2022-08-11T00:02:29.130Z,58.80
2022-08-11T00:03:42.321Z,58.50
2022-08-11T00:04:45.688Z,58.60
2022-08-11T00:05:51.759Z,58.60
2022-08-11T00:06:54.551Z,58.80
2022-08-11T00:07:58.274Z,58.80
2022-08-11T00:09:02.314Z,58.80
2022-08-11T00:10:04.746Z,58.70
2022-08-11T00:11:09.709Z,58.80
2022-08-11T00:12:18.370Z,58.60
2022-08-11T00:13:21.163Z,58.50
2022-08-11T00:14:36.890Z,58.60
2022-08-11T00:15:43.421Z,58.70
2022-08-11T00:16:54.779Z,58.60
2022-08-11T00:18:01.133Z,58.60
2022-08-11T00:19:04.303Z,58.70
2022-08-11T00:20:17.329Z,58.70
2022-08-11T00:22:02.856Z,58.70
2022-08-11T00:22:46.928Z,58.60
2022-08-11T00:23:58.268Z,58.80
2022-08-11T00:25:02.792Z,58.70
2022-08-11T00:26:07.981Z,58.50
2022-08-11T00:27:09.608Z,58.60
2022-08-11T00:28:30.829Z,58.60
2022-08-11T00:29:33.508Z,58.60
2022-08-11T00:30:41.129Z,58.70
2022-08-11T00:31:52.846Z,58.90
2022-08-11T00:32:59.043Z,58.80
2022-08-11T00:34:02.682Z,58.80
2022-08-11T00:35:53.931Z,58.70
2022-08-11T00:36:50.241Z,58.70
2022-08-11T00:37:54.419Z,58.80
2022-08-11T00:39:04.601Z,58.80
2022-08-11T00:40:18.568Z,58.80
2022-08-11T00:41:31.620Z,58.60
2022-08-11T00:43:10.667Z,58.60
2022-08-11T00:44:38.855Z,58.50
2022-08-11T00:45:46.800Z,58.70
2022-08-11T00:47:25.919Z,58.90
2022-08-11T00:48:41.382Z,58.80
2022-08-11T00:50:08.461Z,58.80
2022-08-11T00:51:24.075Z,58.80
2022-08-11T00:53:03.478Z,58.70
2022-08-11T00:54:36.587Z,58.70
2022-08-11T00:56:13.562Z,58.90
2022-08-11T00:57:52.504Z,58.90
2022-08-11T00:59:00.205Z,58.90
2022-08-11T01:00:15.874Z,59.00
2022-08-11T01:01:17.419Z,59.00
2022-08-11T01:02:41.171Z,59.00
2022-08-11T01:04:04.367Z,59.00
2022-08-11T01:05:18.201Z,59.10
2022-08-11T01:06:57.296Z,59.20
2022-08-11T01:08:28.597Z,59.20
2022-08-11T01:09:54.760Z,59.40
2022-08-11T01:11:24.793Z,59.60
2022-08-11T01:13:04.249Z,59.50
2022-08-11T01:14:26.868Z,59.30
2022-08-11T01:15:41.913Z,59.50
2022-08-11T01:17:36.037Z,59.40
2022-08-11T01:18:58.726Z,59.80
2022-08-11T01:20:46.492Z,59.70
2022-08-11T01:22:00.157Z,59.60
2022-08-11T01:23:17.432Z,60.70
2022-08-11T01:24:43.588Z,59.90
2022-08-11T01:26:16.264Z,59.90
2022-08-11T01:28:12.994Z,59.90
2022-08-11T01:29:17.766Z,60.00
2022-08-11T01:30:58.480Z,60.10
2022-08-11T01:32:15.322Z,60.00
2022-08-11T01:33:59.506Z,60.10
2022-08-11T01:35:21.077Z,60.10
2022-08-11T01:36:31.557Z,60.20
2022-08-11T01:38:03.019Z,60.70
2022-08-11T01:39:42.240Z,60.70
2022-08-11T01:41:03.259Z,60.60
2022-08-11T01:42:53.503Z,60.80
2022-08-11T01:44:20.925Z,60.80
2022-08-11T01:45:42.784Z,60.80
2022-08-11T01:46:50.711Z,60.70
2022-08-11T01:48:02.037Z,61.30
2022-08-11T01:49:59.681Z,61.50
2022-08-11T01:50:42.941Z,61.50
2022-08-11T01:52:15.387Z,61.60
2022-08-11T01:53:28.704Z,61.60
2022-08-11T01:54:49.341Z,62.20
2022-08-11T01:56:26.612Z,62.00
2022-08-11T01:58:03.108Z,62.00
2022-08-11T01:59:25.062Z,62.40
2022-08-11T02:00:30.811Z,62.50
2022-08-11T02:01:36.712Z,62.10
2022-08-11T02:02:53.961Z,62.00
2022-08-11T02:04:34.506Z,62.30
2022-08-11T02:06:01.756Z,62.60
2022-08-11T02:07:20.766Z,62.80
2022-08-11T02:09:03.956Z,62.80
2022-08-11T02:10:39.200Z,62.60
2022-08-11T02:11:42.090Z,63.10
2022-08-11T02:12:52.705Z,63.10
2022-08-11T02:14:12.016Z,63.30
2022-08-11T02:15:39.505Z,63.40
2022-08-11T02:17:12.695Z,63.40
2022-08-11T02:18:55.810Z,63.50
2022-08-11T02:20:43.892Z,63.40
2022-08-11T02:22:20.454Z,63.70
2022-08-11T02:24:04.556Z,63.60
2022-08-11T02:25:04.519Z,63.80
2022-08-11T02:26:16.797Z,64.00
2022-08-11T02:27:24.926Z,63.90
2022-08-11T02:28:49.876Z,63.90
2022-08-11T02:30:20.292Z,64.10
2022-08-11T02:32:23.864Z,64.20
2022-08-11T02:33:24.650Z,64.40
2022-08-11T02:34:40.993Z,64.60
2022-08-11T02:36:08.554Z,64.30
2022-08-11T02:37:27.381Z,64.50
2022-08-11T02:38:45.393Z,64.20
2022-08-11T02:39:54.082Z,64.30
2022-08-11T02:41:41.727Z,64.30
2022-08-11T02:42:46.358Z,64.50
2022-08-11T02:44:28.445Z,64.50
2022-08-11T02:45:54.794Z,64.60
2022-08-11T02:47:14.527Z,64.80
2022-08-11T02:48:38.232Z,64.60
2022-08-11T02:50:06.270Z,64.70
2022-08-11T02:51:42.683Z,64.50
2022-08-11T02:52:59.073Z,64.60
2022-08-11T02:54:21.324Z,64.70
2022-08-11T02:55:57.205Z,64.90
2022-08-11T02:57:21.173Z,64.90
2022-08-11T02:59:08.357Z,65.30
2022-08-11T03:00:13.861Z,65.20
2022-08-11T03:01:23.838Z,65.20
2022-08-11T03:02:55.129Z,65.30
2022-08-11T03:04:18.455Z,65.20
2022-08-11T03:05:52.641Z,65.30
2022-08-11T03:07:28.912Z,65.40
2022-08-11T03:08:53.725Z,65.40
2022-08-11T03:10:34.185Z,65.50
2022-08-11T03:12:03.080Z,65.60
2022-08-11T03:13:41.287Z,65.90
2022-08-11T03:15:15.485Z,65.90
2022-08-11T03:16:46.856Z,66.00
2022-08-11T03:18:14.101Z,65.90
2022-08-11T03:19:24.697Z,66.10
2022-08-11T03:20:26.171Z,66.10
2022-08-11T03:22:06.565Z,66.20
2022-08-11T03:23:19.332Z,66.30
2022-08-11T03:24:29.228Z,66.10
2022-08-11T03:25:54.562Z,66.10
2022-08-11T03:27:05.573Z,65.70
2022-08-11T03:28:09.718Z,66.00
2022-08-11T03:29:44.025Z,65.80
2022-08-11T03:31:04.246Z,65.40
2022-08-11T03:32:27.310Z,65.40
2022-08-11T03:34:04.133Z,65.70
2022-08-11T03:35:21.136Z,65.30
2022-08-11T03:37:16.362Z,65.60
2022-08-11T03:38:30.534Z,65.70
2022-08-11T03:39:56.328Z,65.90
2022-08-11T03:42:02.241Z,65.90
2022-08-11T03:43:03.438Z,66.20
2022-08-11T03:44:20.697Z,66.10
2022-08-11T03:45:25.589Z,66.40
2022-08-11T03:46:38.243Z,66.20
2022-08-11T03:48:08.117Z,66.20
2022-08-11T03:49:28.641Z,66.30
2022-08-11T03:50:49.797Z,66.30
2022-08-11T03:51:58.143Z,66.20
2022-08-11T03:53:36.972Z,66.40
2022-08-11T03:54:41.177Z,66.50
2022-08-11T03:56:20.090Z,66.60
2022-08-11T03:57:36.757Z,66.70
2022-08-11T03:58:49.839Z,66.60
2022-08-11T04:00:14.976Z,66.80
2022-08-11T04:01:38.533Z,66.60
2022-08-11T04:03:17.561Z,66.90
2022-08-11T04:04:45.424Z,67.00
2022-08-11T04:06:17.731Z,67.10
2022-08-11T04:07:34.620Z,66.90
2022-08-11T04:09:07.529Z,67.10
2022-08-11T04:10:33.574Z,67.50
2022-08-11T04:11:51.365Z,67.30
2022-08-11T04:13:11.855Z,67.30
2022-08-11T04:15:00.800Z,67.30
2022-08-11T04:16:26.855Z,67.60
2022-08-11T04:17:46.610Z,67.60
2022-08-11T04:19:17.687Z,67.40
2022-08-11T04:20:42.877Z,67.50
2022-08-11T04:22:17.203Z,67.50
2022-08-11T04:24:35.873Z,67.60
2022-08-11T04:25:05.716Z,68.20
2022-08-11T04:27:05.014Z,67.70
2022-08-11T04:28:28.384Z,67.90
2022-08-11T04:30:03.961Z,67.90
2022-08-11T04:31:52.083Z,68.10
2022-08-11T04:33:11.698Z,68.10
2022-08-11T04:34:37.115Z,68.10
2022-08-11T04:36:47.186Z,68.10
2022-08-11T04:38:09.868Z,68.00
2022-08-11T04:39:54.030Z,68.20
2022-08-11T04:42:11.252Z,68.00
2022-08-11T04:44:05.526Z,68.10
2022-08-11T04:45:34.216Z,68.20
2022-08-11T04:47:03.170Z,68.30
2022-08-11T04:49:00.220Z,68.20
2022-08-11T04:51:08.995Z,68.40
2022-08-11T04:53:13.949Z,68.30
2022-08-11T04:54:50.346Z,68.30
2022-08-11T04:56:35.209Z,68.00
2022-08-11T04:58:21.120Z,68.30
2022-08-11T05:00:07.571Z,68.70
2022-08-11T05:01:42.681Z,68.70
2022-08-11T05:02:50.277Z,68.60
2022-08-11T05:04:32.933Z,68.60
2022-08-11T05:06:01.373Z,68.80
2022-08-11T05:07:28.977Z,68.70
2022-08-11T05:09:07.344Z,68.90
2022-08-11T05:10:43.354Z,68.60
2022-08-11T05:12:03.068Z,68.60
2022-08-11T05:13:27.710Z,68.30
2022-08-11T05:14:59.604Z,68.50
2022-08-11T05:16:28.347Z,68.90
2022-08-11T05:18:15.645Z,68.90
2022-08-11T05:19:38.461Z,68.80
2022-08-11T05:21:05.872Z,68.40
2022-08-11T05:22:30.367Z,68.70
2022-08-11T05:23:53.352Z,68.80
2022-08-11T05:26:45.531Z,68.70
2022-08-11T05:27:13.578Z,68.50
2022-08-11T05:28:40.318Z,68.20
2022-08-11T05:30:00.693Z,68.00
2022-08-11T05:31:32.280Z,68.30
2022-08-11T05:33:02.016Z,67.90
2022-08-11T05:34:32.053Z,68.30
2022-08-11T05:36:02.435Z,67.90
2022-08-11T05:37:26.182Z,67.70
2022-08-11T05:38:51.605Z,67.70
2022-08-11T05:40:18.402Z,67.50
2022-08-11T05:41:42.106Z,67.80
2022-08-11T05:43:14.884Z,67.70
2022-08-11T05:44:39.934Z,67.60
2022-08-11T05:46:03.505Z,67.10
2022-08-11T05:47:24.919Z,66.80
2022-08-11T05:48:52.553Z,67.20
2022-08-11T05:50:15.106Z,67.00
2022-08-11T05:51:35.883Z,67.10
2022-08-11T05:52:57.678Z,67.10
2022-08-11T05:54:29.088Z,66.20
2022-08-11T05:56:01.861Z,66.40
2022-08-11T05:57:05.664Z,66.30
2022-08-11T05:58:10.272Z,65.80
2022-08-11T05:59:17.027Z,66.00
2022-08-11T06:00:19.575Z,65.40
2022-08-11T06:01:33.737Z,65.40
2022-08-11T06:02:43.778Z,65.30
2022-08-11T06:04:08.452Z,65.30
2022-08-11T06:05:11.371Z,65.10
2022-08-11T06:06:13.255Z,65.00
2022-08-11T06:07:17.655Z,65.00
2022-08-11T06:08:27.585Z,64.80
2022-08-11T06:09:32.788Z,63.90
2022-08-11T06:10:37.474Z,64.40
2022-08-11T06:11:43.928Z,64.30
2022-08-11T06:12:56.294Z,63.70
2022-08-11T06:13:58.403Z,63.90
2022-08-11T06:15:05.870Z,63.80
2022-08-11T06:16:07.996Z,63.60
2022-08-11T06:17:10.861Z,63.30
2022-08-11T06:18:14.012Z,62.10
2022-08-11T06:19:17.198Z,62.00
2022-08-11T06:20:20.225Z,62.50
2022-08-11T06:21:22.834Z,62.70
2022-08-11T06:22:25.927Z,62.50
2022-08-11T06:23:33.364Z,61.80
2022-08-11T06:24:41.096Z,61.50
2022-08-11T06:25:42.765Z,61.70
2022-08-11T06:27:11.732Z,61.70
2022-08-11T06:28:20.602Z,61.80
2022-08-11T06:29:37.573Z,62.00
2022-08-11T06:30:46.786Z,63.00
2022-08-11T06:31:58.642Z,61.50
2022-08-11T06:33:01.607Z,61.10
2022-08-11T06:34:27.466Z,60.90
2022-08-11T06:35:50.401Z,60.80
2022-08-11T06:36:59.769Z,60.40
2022-08-11T06:38:16.156Z,60.30
2022-08-11T06:39:43.714Z,60.10
2022-08-11T06:41:15.189Z,60.10
2022-08-11T06:42:53.356Z,60.00
2022-08-11T06:44:10.356Z,60.10
2022-08-11T06:45:26.865Z,60.00
2022-08-11T06:46:37.180Z,59.80
2022-08-11T06:47:49.452Z,60.10
2022-08-11T06:48:53.579Z,60.00
2022-08-11T06:50:18.018Z,59.20
2022-08-11T06:51:20.810Z,59.50
2022-08-11T06:52:36.370Z,59.40
2022-08-11T06:54:05.586Z,58.90
2022-08-11T06:55:58.190Z,58.90
2022-08-11T06:57:30.354Z,59.20
2022-08-11T06:58:57.483Z,59.30
2022-08-11T07:00:20.030Z,59.20
2022-08-11T07:01:52.032Z,58.90
2022-08-11T07:03:11.449Z,59.10
2022-08-11T07:04:18.407Z,59.10
2022-08-11T07:05:25.589Z,58.80
2022-08-11T07:07:08.659Z,59.30
2022-08-11T07:08:54.222Z,59.00
2022-08-11T07:10:34.154Z,58.60
2022-08-11T07:12:10.407Z,58.80
2022-08-11T07:13:44.434Z,58.60
2022-08-11T07:15:10.930Z,58.20
2022-08-11T07:16:18.683Z,58.50
2022-08-11T07:17:27.321Z,58.70
2022-08-11T07:18:53.220Z,58.70
2022-08-11T07:20:16.948Z,58.00
2022-08-11T07:22:02.631Z,58.50
2022-08-11T07:23:28.090Z,57.80
2022-08-11T07:24:59.437Z,58.80
2022-08-11T07:26:25.777Z,57.90
2022-08-11T07:28:09.307Z,59.00
2022-08-11T07:29:14.190Z,58.40
2022-08-11T07:30:18.362Z,60.40
2022-08-11T07:31:43.817Z,60.50
2022-08-11T07:32:56.030Z,60.00
2022-08-11T07:34:15.883Z,59.80
2022-08-11T07:35:29.812Z,60.20
2022-08-11T07:36:31.940Z,61.50
2022-08-11T07:37:35.194Z,62.50
2022-08-11T07:38:51.307Z,62.70
2022-08-11T07:39:54.122Z,62.70
2022-08-11T07:40:59.108Z,63.60
2022-08-11T07:42:07.090Z,63.10
2022-08-11T07:43:09.689Z,63.80
2022-08-11T07:44:12.670Z,63.90
2022-08-11T07:45:33.289Z,64.00
2022-08-11T07:47:00.924Z,64.50
2022-08-11T07:48:22.966Z,64.40
2022-08-11T07:49:43.770Z,65.30
2022-08-11T07:51:05.361Z,65.60
2022-08-11T07:52:26.236Z,64.30
2022-08-11T07:53:30.532Z,64.90
2022-08-11T07:54:33.552Z,65.40
2022-08-11T07:55:50.145Z,65.70
2022-08-11T07:57:09.475Z,66.10
2022-08-11T07:58:45.448Z,66.10
2022-08-11T08:00:15.189Z,66.60
2022-08-11T08:01:44.463Z,66.90
2022-08-11T08:03:04.697Z,65.70
2022-08-11T08:04:27.022Z,66.00
2022-08-11T08:05:48.456Z,66.70
2022-08-11T08:07:09.894Z,67.40
2022-08-11T08:08:29.996Z,67.10
2022-08-11T08:09:54.212Z,66.80
2022-08-11T08:11:15.865Z,66.50
2022-08-11T08:12:40.811Z,66.60
2022-08-11T08:14:02.452Z,67.50
2022-08-11T08:15:26.985Z,66.60
2022-08-11T08:16:49.686Z,66.80
2022-08-11T08:18:21.037Z,68.30
2022-08-11T08:19:17.122Z,68.70
2022-08-11T08:20:21.778Z,69.60
2022-08-11T08:21:23.653Z,69.30
2022-08-11T08:22:37.702Z,68.90
2022-08-11T08:23:44.260Z,68.90
2022-08-11T08:24:47.928Z,70.30
2022-08-11T08:25:52.559Z,68.70
2022-08-11T08:27:00.161Z,68.60
2022-08-11T08:28:11.219Z,68.50
2022-08-11T08:29:32.106Z,68.20
2022-08-11T08:30:50.580Z,67.50
2022-08-11T08:31:53.499Z,68.40
2022-08-11T08:32:57.763Z,68.90
2022-08-11T08:33:59.471Z,68.80
2022-08-11T08:35:03.476Z,68.90
2022-08-11T08:36:12.002Z,68.80
2022-08-11T08:37:45.383Z,67.90
2022-08-11T08:38:58.422Z,67.70
2022-08-11T08:40:00.118Z,67.90
2022-08-11T08:41:02.750Z,68.70
2022-08-11T08:42:11.669Z,68.60
2022-08-11T08:43:17.400Z,67.90
2022-08-11T08:44:37.777Z,67.90
2022-08-11T08:45:43.011Z,67.90
2022-08-11T08:46:47.965Z,67.40
2022-08-11T08:48:01.676Z,68.20
2022-08-11T08:49:04.578Z,68.10
2022-08-11T08:50:16.803Z,68.10
2022-08-11T08:52:01.643Z,68.50
2022-08-11T08:53:04.084Z,68.90
2022-08-11T08:54:10.027Z,68.10
2022-08-11T08:55:17.950Z,68.30
2022-08-11T08:56:27.607Z,68.30
2022-08-11T08:57:31.847Z,67.60
2022-08-11T08:58:42.598Z,67.70
2022-08-11T08:59:49.551Z,66.80
2022-08-11T09:00:54.954Z,66.90
2022-08-11T09:02:01.030Z,67.60
2022-08-11T09:03:22.938Z,67.30
2022-08-11T09:04:26.023Z,67.60
2022-08-11T09:05:27.666Z,68.00
2022-08-11T09:06:32.077Z,67.60
2022-08-11T09:07:39.595Z,68.40
2022-08-11T09:08:42.355Z,67.60
2022-08-11T09:09:48.176Z,67.00
2022-08-11T09:11:13.763Z,67.00
2022-08-11T09:12:38.568Z,66.40
2022-08-11T09:13:44.348Z,67.20
2022-08-11T09:15:03.662Z,67.70
2022-08-11T09:16:10.055Z,67.40
2022-08-11T09:17:12.235Z,67.50
2022-08-11T09:18:13.884Z,67.90
2022-08-11T09:19:18.432Z,66.50
2022-08-11T09:20:22.169Z,66.20
2022-08-11T09:21:46.511Z,66.20
2022-08-11T09:24:07.315Z,66.40
2022-08-11T09:24:48.533Z,66.90
2022-08-11T09:26:11.737Z,66.30
2022-08-11T09:27:14.355Z,65.60
2022-08-11T09:28:17.352Z,65.70
2022-08-11T09:29:19.063Z,66.20
2022-08-11T09:30:21.712Z,64.90
2022-08-11T09:31:23.583Z,64.60
2022-08-11T09:32:28.829Z,65.20
2022-08-11T09:33:32.011Z,65.30
2022-08-11T09:34:36.723Z,65.80
2022-08-11T09:35:39.121Z,64.90
2022-08-11T09:37:01.844Z,64.40
2022-08-11T09:38:24.483Z,63.90
2022-08-11T09:39:46.878Z,63.90
2022-08-11T09:40:56.272Z,63.50
2022-08-11T09:42:03.352Z,64.90
2022-08-11T09:43:29.043Z,63.20
2022-08-11T09:44:48.758Z,63.90
2022-08-11T09:45:53.516Z,62.80
2022-08-11T09:46:59.425Z,63.40
2022-08-11T09:48:02.104Z,63.60
2022-08-11T09:49:05.199Z,63.50
2022-08-11T09:50:09.015Z,64.70
2022-08-11T09:51:12.869Z,63.40
2022-08-11T09:52:15.766Z,63.50
2022-08-11T09:53:35.778Z,61.40
2022-08-11T09:54:41.666Z,60.30
2022-08-11T09:55:46.323Z,60.50
2022-08-11T09:57:06.539Z,59.60
2022-08-11T09:58:33.865Z,60.00
2022-08-11T09:59:41.419Z,58.80
2022-08-11T10:00:44.913Z,59.40
2022-08-11T10:01:49.631Z,59.50
2022-08-11T10:02:54.536Z,58.60
2022-08-11T10:04:05.671Z,59.00
2022-08-11T10:05:27.030Z,59.50
2022-08-11T10:06:53.970Z,59.20
2022-08-11T10:07:57.136Z,57.80
2022-08-11T10:08:58.935Z,58.20
2022-08-11T10:10:02.699Z,58.50
2022-08-11T10:11:09.355Z,58.30
2022-08-11T10:12:18.405Z,57.80
2022-08-11T10:14:03.774Z,57.50
2022-08-11T10:15:06.845Z,57.30
2022-08-11T10:16:15.174Z,57.00
2022-08-11T10:17:21.796Z,56.80
2022-08-11T10:18:53.388Z,57.40
2022-08-11T10:20:04.172Z,57.20
2022-08-11T10:21:28.595Z,57.30
2022-08-11T10:22:49.811Z,57.40
2022-08-11T10:24:11.879Z,57.10
2022-08-11T10:25:34.243Z,56.50
2022-08-11T10:26:54.345Z,56.10
2022-08-11T10:28:28.379Z,55.80
2022-08-11T10:29:49.877Z,55.30
2022-08-11T10:31:12.743Z,55.80
2022-08-11T10:32:57.879Z,56.60
2022-08-11T10:34:05.815Z,55.80
2022-08-11T10:35:12.669Z,55.10
2022-08-11T10:36:16.739Z,55.20
2022-08-11T10:37:22.679Z,55.70
2022-08-11T10:38:25.699Z,55.30
2022-08-11T10:39:27.329Z,55.70
2022-08-11T10:40:29.503Z,55.30
2022-08-11T10:42:06.882Z,56.40
2022-08-11T10:43:14.268Z,55.50
2022-08-11T10:44:16.984Z,54.30
2022-08-11T10:45:38.347Z,55.00
2022-08-11T10:46:59.259Z,53.80
2022-08-11T10:48:01.997Z,53.40
2022-08-11T10:49:03.731Z,53.60
2022-08-11T10:50:31.906Z,53.60
2022-08-11T10:51:53.761Z,53.90
2022-08-11T10:53:16.434Z,53.50
2022-08-11T10:54:36.788Z,54.50
2022-08-11T10:55:58.640Z,53.80
2022-08-11T10:57:19.767Z,53.20
2022-08-11T10:58:41.829Z,53.00
2022-08-11T10:59:44.751Z,53.20
2022-08-11T11:00:46.457Z,52.50
2022-08-11T11:01:48.352Z,52.90
2022-08-11T11:03:21.892Z,53.00
2022-08-11T11:04:34.142Z,53.90
2022-08-11T11:05:39.190Z,53.30
2022-08-11T11:07:16.884Z,52.70
2022-08-11T11:08:44.573Z,52.60
2022-08-11T11:09:54.262Z,53.40
2022-08-11T11:10:56.817Z,52.90
2022-08-11T11:12:23.619Z,52.50
2022-08-11T11:13:55.069Z,52.30
2022-08-11T11:15:17.958Z,52.50
2022-08-11T11:16:39.818Z,52.50
2022-08-11T11:17:57.575Z,52.20
2022-08-11T11:19:04.074Z,51.10
2022-08-11T11:20:07.903Z,51.70
2022-08-11T11:21:20.565Z,51.50
2022-08-11T11:22:41.174Z,51.10
2022-08-11T11:24:13.455Z,51.90
2022-08-11T11:25:30.735Z,51.60
2022-08-11T11:26:52.976Z,51.70
2022-08-11T11:28:29.413Z,50.90
2022-08-11T11:29:33.942Z,51.10
2022-08-11T11:30:51.495Z,51.70
2022-08-11T11:32:14.563Z,51.40
2022-08-11T11:34:06.948Z,51.10
2022-08-11T11:35:26.771Z,50.50
2022-08-11T11:37:03.742Z,50.50
2022-08-11T11:38:14.107Z,51.10
2022-08-11T11:39:24.688Z,51.40
2022-08-11T11:40:31.469Z,50.80
2022-08-11T11:41:34.487Z,51.00
2022-08-11T11:42:36.647Z,50.90
2022-08-11T11:43:38.601Z,50.70
2022-08-11T11:44:44.539Z,50.90
2022-08-11T11:45:46.471Z,50.50
2022-08-11T11:46:48.554Z,50.50
2022-08-11T11:47:52.540Z,50.20
2022-08-11T11:48:56.815Z,50.00
2022-08-11T11:49:59.070Z,51.10
2022-08-11T11:51:01.581Z,49.90
2022-08-11T11:52:03.683Z,50.00
2022-08-11T11:53:10.106Z,50.20
2022-08-11T11:54:13.956Z,49.80
2022-08-11T11:55:15.774Z,49.90
2022-08-11T11:56:17.967Z,50.30
2022-08-11T11:57:40.243Z,49.80
2022-08-11T11:59:00.948Z,49.70
2022-08-11T12:00:24.273Z,49.80
2022-08-11T12:01:35.543Z,50.10
2022-08-11T12:02:49.790Z,49.90
2022-08-11T12:03:54.250Z,50.00
2022-08-11T12:04:56.359Z,50.40
2022-08-11T12:05:58.634Z,50.40
2022-08-11T12:07:18.882Z,49.50
2022-08-11T12:08:25.846Z,49.40
2022-08-11T12:09:29.657Z,49.50
2022-08-11T12:10:32.420Z,49.40
2022-08-11T12:11:52.901Z,50.20
2022-08-11T12:13:14.192Z,50.00
2022-08-11T12:14:20.806Z,48.80
2022-08-11T12:16:04.425Z,49.70
2022-08-11T12:16:46.441Z,49.70
2022-08-11T12:17:52.415Z,49.50
2022-08-11T12:18:59.817Z,49.10
2022-08-11T12:20:03.212Z,48.40
2022-08-11T12:21:06.115Z,48.70
2022-08-11T12:22:26.396Z,48.70
2022-08-11T12:23:47.876Z,48.80
2022-08-11T12:25:08.233Z,49.10
2022-08-11T12:26:29.137Z,49.40
2022-08-11T12:27:31.648Z,50.00
2022-08-11T12:28:34.011Z,49.90
2022-08-11T12:29:36.277Z,49.10
2022-08-11T12:31:45.556Z,48.40
2022-08-11T12:32:47.804Z,48.80
2022-08-11T12:33:50.682Z,48.80
2022-08-11T12:34:52.793Z,47.90
2022-08-11T12:36:01.097Z,48.10
2022-08-11T12:37:06.892Z,48.10
2022-08-11T12:38:12.623Z,47.90
2022-08-11T12:39:24.080Z,48.60
2022-08-11T12:41:17.385Z,48.20
2022-08-11T12:42:39.063Z,47.90
2022-08-11T12:44:03.806Z,48.10
2022-08-11T12:45:27.973Z,48.40
2022-08-11T12:46:37.834Z,47.90
2022-08-11T12:48:42.524Z,47.50
2022-08-11T12:49:45.364Z,48.20
2022-08-11T12:51:19.908Z,48.00
2022-08-11T12:52:34.516Z,48.40
2022-08-11T12:53:40.498Z,48.30
2022-08-11T12:55:13.450Z,47.90
2022-08-11T12:56:35.167Z,47.70
2022-08-11T12:58:03.697Z,48.00
2022-08-11T12:59:26.548Z,47.90
2022-08-11T13:00:49.866Z,47.50
2022-08-11T13:02:10.270Z,47.50
2022-08-11T13:03:32.689Z,47.60
2022-08-11T13:04:53.474Z,47.30
2022-08-11T13:05:58.777Z,47.10
2022-08-11T13:07:03.208Z,47.50
2022-08-11T13:08:06.863Z,47.40
2022-08-11T13:09:11.623Z,47.90
2022-08-11T13:10:35.762Z,48.00
2022-08-11T13:11:59.916Z,47.90
2022-08-11T13:13:03.049Z,47.80
2022-08-11T13:14:06.604Z,47.10
2022-08-11T13:15:10.389Z,47.20
2022-08-11T13:16:12.687Z,47.30
2022-08-11T13:17:44.165Z,47.20
2022-08-11T13:18:46.770Z,47.40
2022-08-11T13:19:49.841Z,47.50
2022-08-11T13:20:56.094Z,46.50
2022-08-11T13:21:58.592Z,47.10
2022-08-11T13:23:01.742Z,46.50
2022-08-11T13:24:03.869Z,47.10
2022-08-11T13:25:06.864Z,48.10
2022-08-11T13:26:08.912Z,47.60
2022-08-11T13:27:15.225Z,47.00
2022-08-11T13:28:19.808Z,47.20
2022-08-11T13:29:24.299Z,47.20
2022-08-11T13:30:47.893Z,47.10
2022-08-11T13:31:51.038Z,47.40
2022-08-11T13:32:53.108Z,46.80
2022-08-11T13:33:55.024Z,46.60
2022-08-11T13:34:57.601Z,46.80
2022-08-11T13:36:00.020Z,46.30
2022-08-11T13:37:05.413Z,45.70
2022-08-11T13:38:18.592Z,46.20
2022-08-11T13:39:26.068Z,46.00
2022-08-11T13:40:45.686Z,46.50
2022-08-11T13:41:50.856Z,45.80
2022-08-11T13:42:53.256Z,45.90
2022-08-11T13:43:56.010Z,46.40
2022-08-11T13:44:58.723Z,46.80
2022-08-11T13:46:18.933Z,46.00
2022-08-11T13:47:23.649Z,46.10
2022-08-11T13:48:25.470Z,46.30
2022-08-11T13:49:27.883Z,46.30
2022-08-11T13:50:48.311Z,46.50
2022-08-11T13:51:50.718Z,45.80
2022-08-11T13:52:53.398Z,46.60
2022-08-11T13:53:57.903Z,46.20
2022-08-11T13:55:04.691Z,45.10
2022-08-11T13:56:06.617Z,45.60
2022-08-11T13:57:13.615Z,45.60
2022-08-11T13:58:39.670Z,46.90
2022-08-11T13:59:52.336Z,45.60
2022-08-11T14:00:55.175Z,46.40
2022-08-11T14:02:22.252Z,45.80
2022-08-11T14:03:27.999Z,44.80
2022-08-11T14:04:57.852Z,44.90
2022-08-11T14:06:03.547Z,45.70
2022-08-11T14:07:08.866Z,45.90
2022-08-11T14:08:32.544Z,45.50
2022-08-11T14:09:39.907Z,45.70
2022-08-11T14:10:42.751Z,44.50
2022-08-11T14:12:21.201Z,45.00
2022-08-11T14:13:42.556Z,44.60
2022-08-11T14:14:56.409Z,45.40
2022-08-11T14:16:04.977Z,45.60
2022-08-11T14:17:09.101Z,45.90
2022-08-11T14:18:29.045Z,45.20
2022-08-11T14:19:34.937Z,45.00
2022-08-11T14:20:59.116Z,45.90
2022-08-11T14:22:08.662Z,44.80
2022-08-11T14:23:14.775Z,44.90
2022-08-11T14:24:17.825Z,45.10
2022-08-11T14:25:19.486Z,45.70
2022-08-11T14:26:29.089Z,45.50
2022-08-11T14:28:15.489Z,44.50
2022-08-11T14:29:14.551Z,44.30
2022-08-11T14:30:34.964Z,43.90
2022-08-11T14:31:40.548Z,43.90
2022-08-11T14:32:53.052Z,44.40
2022-08-11T14:34:02.760Z,44.50
2022-08-11T14:35:05.000Z,44.50
2022-08-11T14:36:09.310Z,44.30
2022-08-11T14:37:30.387Z,44.30
2022-08-11T14:38:34.652Z,44.20
2022-08-11T14:39:43.827Z,43.90
2022-08-11T14:41:05.824Z,44.20
2022-08-11T14:42:27.851Z,43.70
2022-08-11T14:44:12.559Z,43.00
2022-08-11T14:45:57.809Z,44.70
2022-08-11T14:47:23.314Z,42.80
2022-08-11T14:48:27.189Z,43.20
2022-08-11T14:49:29.980Z,43.50
2022-08-11T14:50:35.066Z,42.90
2022-08-11T14:51:36.973Z,43.10
2022-08-11T14:52:43.475Z,43.70
2022-08-11T14:53:58.281Z,42.80
2022-08-11T14:55:20.860Z,43.60
2022-08-11T14:56:37.931Z,43.40
2022-08-11T14:57:55.946Z,43.60
2022-08-11T14:58:59.636Z,43.80
2022-08-11T15:00:03.817Z,45.20
2022-08-11T15:01:26.139Z,43.30
2022-08-11T15:02:47.459Z,44.30
2022-08-11T15:04:33.930Z,42.90
2022-08-11T15:05:15.186Z,44.00
2022-08-11T15:06:16.990Z,43.50
2022-08-11T15:07:25.459Z,45.00
2022-08-11T15:08:48.991Z,44.30
2022-08-11T15:10:19.611Z,44.50
2022-08-11T15:11:33.010Z,45.30
2022-08-11T15:12:36.306Z,45.10
2022-08-11T15:13:39.005Z,42.80
2022-08-11T15:15:00.335Z,41.80
2022-08-11T15:16:20.568Z,41.40
2022-08-11T15:17:23.079Z,41.50
2022-08-11T15:18:32.368Z,41.10
2022-08-11T15:19:40.610Z,41.40
2022-08-11T15:21:02.521Z,41.30
2022-08-11T15:22:27.788Z,40.70
2022-08-11T15:23:49.466Z,41.00
2022-08-11T15:24:51.342Z,40.80
2022-08-11T15:26:06.315Z,41.60
2022-08-11T15:27:40.127Z,42.40
2022-08-11T15:29:05.640Z,41.80
2022-08-11T15:30:32.859Z,42.00
2022-08-11T15:31:44.281Z,39.60
2022-08-11T15:33:12.397Z,39.50
2022-08-11T15:34:36.228Z,39.60
2022-08-11T15:35:57.216Z,40.00
2022-08-11T15:37:21.396Z,43.20
2022-08-11T15:38:25.376Z,43.80
2022-08-11T15:39:58.636Z,42.60
2022-08-11T15:41:20.228Z,43.00
2022-08-11T15:43:00.294Z,44.80
2022-08-11T15:44:44.466Z,42.60
2022-08-11T15:45:52.207Z,42.80
2022-08-11T15:46:58.187Z,41.90
2022-08-11T15:48:10.563Z,43.40
2022-08-11T15:49:23.889Z,43.60
2022-08-11T15:50:30.984Z,46.40
2022-08-11T15:52:02.087Z,43.60
2022-08-11T15:53:10.853Z,42.40
2022-08-11T15:54:17.293Z,42.90
2022-08-11T15:55:19.919Z,43.50
2022-08-11T15:56:25.915Z,42.80
2022-08-11T15:57:47.615Z,44.90
2022-08-11T15:59:42.459Z,43.30
2022-08-11T16:00:59.126Z,43.00
2022-08-11T16:02:12.004Z,43.00
2022-08-11T16:04:05.647Z,43.10
2022-08-11T16:05:02.651Z,43.10
2022-08-11T16:06:06.175Z,44.60
2022-08-11T16:07:14.591Z,45.80
2022-08-11T16:08:25.283Z,43.20
2022-08-11T16:09:47.695Z,44.00
2022-08-11T16:10:53.017Z,47.20
2022-08-11T16:12:00.619Z,48.20
2022-08-11T16:13:05.502Z,45.70
2022-08-11T16:14:27.038Z,45.60
2022-08-11T16:15:50.559Z,45.60
2022-08-11T16:16:56.117Z,45.10
2022-08-11T16:18:04.996Z,47.30
2022-08-11T16:19:10.803Z,46.80
2022-08-11T16:20:14.673Z,45.70
2022-08-11T16:21:34.083Z,45.60
2022-08-11T16:22:41.609Z,45.40
2022-08-11T16:24:09.488Z,45.20
2022-08-11T16:27:02.257Z,45.20
2022-08-11T16:27:11.168Z,45.70
2022-08-11T16:28:16.952Z,45.60
2022-08-11T16:29:21.741Z,46.10
2022-08-11T16:30:27.241Z,45.60
2022-08-11T16:31:30.896Z,45.80
2022-08-11T16:32:34.458Z,45.40
2022-08-11T16:33:49.797Z,45.80
2022-08-11T16:35:19.447Z,46.20
2022-08-11T16:36:44.111Z,46.10
2022-08-11T16:38:05.229Z,46.00